sensor_id;sensor_type;location;lat;lon;timestamp;pressure;altitude;pressure_sealevel;temperature;humidity
6853;BME280;3465;42.144;24.722;2023-09-18T00:02:07;147168.94;;;17.00;nan
6853;BME280;3465;42.144;24.722;2023-09-18T00:04:32;147147.53;;;16.91;nan
6853;BME280;3465;42.144;24.722;2023-09-18T00:06:59;147136.22;;;16.87;nan
6853;BME280;3465;42.144;24.722;2023-09-18T00:09:24;147143.75;;;16.90;nan
6853;BME280;3465;42.144;24.722;2023-09-18T00:11:49;147141.25;;;16.89;nan
6853;BME280;3465;42.144;24.722;2023-09-18T00:14:15;147146.25;;;16.91;nan
6853;BME280;3465;42.144;24.722;2023-09-18T00:16:40;147151.31;;;16.93;nan
6853;BME280;3465;42.144;24.722;2023-09-18T00:19:06;147142.47;;;16.89;nan
6853;BME280;3465;42.144;24.722;2023-09-18T00:21:34;147134.94;;;16.86;nan
6853;BME280;3465;42.144;24.722;2023-09-18T00:23:59;147134.94;;;16.86;nan
6853;BME280;3465;42.144;24.722;2023-09-18T00:26:25;147108.53;;;16.76;nan
6853;BME280;3465;42.144;24.722;2023-09-18T00:28:50;147160.13;;;16.96;nan
6853;BME280;3465;42.144;24.722;2023-09-18T00:31:16;147139.97;;;16.88;nan
6853;BME280;3465;42.144;24.722;2023-09-18T00:33:41;147157.63;;;16.95;nan
6853;BME280;3465;42.144;24.722;2023-09-18T00:36:07;147147.53;;;16.91;nan
6853;BME280;3465;42.144;24.722;2023-09-18T00:38:32;147155.06;;;16.94;nan
6853;BME280;3465;42.144;24.722;2023-09-18T00:40:57;147141.25;;;16.89;nan
6853;BME280;3465;42.144;24.722;2023-09-18T00:43:23;147134.94;;;16.86;nan
6853;BME280;3465;42.144;24.722;2023-09-18T00:45:48;147141.25;;;16.89;nan
6853;BME280;3465;42.144;24.722;2023-09-18T00:48:15;147137.47;;;16.87;nan
6853;BME280;3465;42.144;24.722;2023-09-18T00:50:42;147152.56;;;16.93;nan
6853;BME280;3465;42.144;24.722;2023-09-18T00:53:08;147127.38;;;16.83;nan
6853;BME280;3465;42.144;24.722;2023-09-18T00:55:36;147150.03;;;16.92;nan
6853;BME280;3465;42.144;24.722;2023-09-18T00:58:04;147105.97;;;16.75;nan
6853;BME280;3465;42.144;24.722;2023-09-18T01:00:30;147116.06;;;16.79;nan
6853;BME280;3465;42.144;24.722;2023-09-18T01:02:55;147111.00;;;16.77;nan
6853;BME280;3465;42.144;24.722;2023-09-18T01:05:21;147109.75;;;16.76;nan
6853;BME280;3465;42.144;24.722;2023-09-18T01:07:46;147108.53;;;16.76;nan
6853;BME280;3465;42.144;24.722;2023-09-18T01:10:13;147082.06;;;16.65;nan
6853;BME280;3465;42.144;24.722;2023-09-18T01:12:53;147079.56;;;16.64;nan
6853;BME280;3465;42.144;24.722;2023-09-18T01:15:33;147060.69;;;16.57;nan
6853;BME280;3465;42.144;24.722;2023-09-18T01:18:00;147033.00;;;16.46;nan
6853;BME280;3465;42.144;24.722;2023-09-18T01:20:26;147058.13;;;16.56;nan
6853;BME280;3465;42.144;24.722;2023-09-18T01:22:52;147058.13;;;16.56;nan
6853;BME280;3465;42.144;24.722;2023-09-18T01:25:18;147050.59;;;16.53;nan
6853;BME280;3465;42.144;24.722;2023-09-18T01:27:43;147073.28;;;16.62;nan
6853;BME280;3465;42.144;24.722;2023-09-18T01:30:09;147093.41;;;16.70;nan
6853;BME280;3465;42.144;24.722;2023-09-18T01:32:36;147108.53;;;16.76;nan
6853;BME280;3465;42.144;24.722;2023-09-18T01:35:02;147089.59;;;16.68;nan
6853;BME280;3465;42.144;24.722;2023-09-18T01:37:31;147077.06;;;16.63;nan
6853;BME280;3465;42.144;24.722;2023-09-18T01:39:57;147085.81;;;16.67;nan
6853;BME280;3465;42.144;24.722;2023-09-18T01:42:25;147092.16;;;16.69;nan
6853;BME280;3465;42.144;24.722;2023-09-18T01:44:52;147098.41;;;16.72;nan
6853;BME280;3465;42.144;24.722;2023-09-18T01:47:19;147092.16;;;16.69;nan
6853;BME280;3465;42.144;24.722;2023-09-18T01:49:46;147077.06;;;16.63;nan
6853;BME280;3465;42.144;24.722;2023-09-18T01:52:12;147079.56;;;16.64;nan
6853;BME280;3465;42.144;24.722;2023-09-18T01:54:37;147074.50;;;16.62;nan
6853;BME280;3465;42.144;24.722;2023-09-18T01:57:03;147097.19;;;16.71;nan
6853;BME280;3465;42.144;24.722;2023-09-18T01:59:29;147108.53;;;16.76;nan
6853;BME280;3465;42.144;24.722;2023-09-18T02:01:55;147111.00;;;16.77;nan
6853;BME280;3465;42.144;24.722;2023-09-18T02:04:21;147114.78;;;16.78;nan
6853;BME280;3465;42.144;24.722;2023-09-18T02:06:48;147093.41;;;16.70;nan
6853;BME280;3465;42.144;24.722;2023-09-18T02:09:14;147097.19;;;16.71;nan
6853;BME280;3465;42.144;24.722;2023-09-18T02:11:42;147108.53;;;16.76;nan
6853;BME280;3465;42.144;24.722;2023-09-18T02:14:08;147097.19;;;16.71;nan
6853;BME280;3465;42.144;24.722;2023-09-18T02:16:36;147090.88;;;16.69;nan
6853;BME280;3465;42.144;24.722;2023-09-18T02:19:04;147090.88;;;16.69;nan
6853;BME280;3465;42.144;24.722;2023-09-18T02:21:30;147080.81;;;16.65;nan
6853;BME280;3465;42.144;24.722;2023-09-18T02:23:56;147088.38;;;16.68;nan
6853;BME280;3465;42.144;24.722;2023-09-18T02:26:23;147092.16;;;16.69;nan
6853;BME280;3465;42.144;24.722;2023-09-18T02:28:51;147083.31;;;16.66;nan
6853;BME280;3465;42.144;24.722;2023-09-18T02:31:16;147045.53;;;16.51;nan
6853;BME280;3465;42.144;24.722;2023-09-18T02:33:43;147088.38;;;16.68;nan
6853;BME280;3465;42.144;24.722;2023-09-18T02:36:08;147068.22;;;16.60;nan
6853;BME280;3465;42.144;24.722;2023-09-18T02:38:34;147074.50;;;16.62;nan
6853;BME280;3465;42.144;24.722;2023-09-18T02:40:59;147075.78;;;16.63;nan
6853;BME280;3465;42.144;24.722;2023-09-18T02:43:25;147088.38;;;16.68;nan
6853;BME280;3465;42.144;24.722;2023-09-18T02:45:51;147102.19;;;16.73;nan
6853;BME280;3465;42.144;24.722;2023-09-18T02:48:17;147092.16;;;16.69;nan
6853;BME280;3465;42.144;24.722;2023-09-18T02:50:43;147097.19;;;16.71;nan
6853;BME280;3465;42.144;24.722;2023-09-18T02:53:17;147079.56;;;16.64;nan
6853;BME280;3465;42.144;24.722;2023-09-18T02:55:44;147080.81;;;16.65;nan
6853;BME280;3465;42.144;24.722;2023-09-18T02:58:09;147077.06;;;16.63;nan
6853;BME280;3465;42.144;24.722;2023-09-18T03:00:40;147050.59;;;16.53;nan
6853;BME280;3465;42.144;24.722;2023-09-18T03:03:05;147055.63;;;16.55;nan
6853;BME280;3465;42.144;24.722;2023-09-18T03:05:31;147070.72;;;16.61;nan
6853;BME280;3465;42.144;24.722;2023-09-18T03:07:57;147117.34;;;16.79;nan
6853;BME280;3465;42.144;24.722;2023-09-18T03:10:22;147104.75;;;16.74;nan
6853;BME280;3465;42.144;24.722;2023-09-18T03:12:48;147105.97;;;16.75;nan
6853;BME280;3465;42.144;24.722;2023-09-18T03:15:13;147088.38;;;16.68;nan
6853;BME280;3465;42.144;24.722;2023-09-18T03:17:38;147094.66;;;16.70;nan
6853;BME280;3465;42.144;24.722;2023-09-18T03:20:07;147070.72;;;16.61;nan
6853;BME280;3465;42.144;24.722;2023-09-18T03:22:33;147100.97;;;16.73;nan
6853;BME280;3465;42.144;24.722;2023-09-18T03:24:58;147097.19;;;16.71;nan
6853;BME280;3465;42.144;24.722;2023-09-18T03:27:24;147094.66;;;16.70;nan
6853;BME280;3465;42.144;24.722;2023-09-18T03:29:57;147090.88;;;16.69;nan
6853;BME280;3465;42.144;24.722;2023-09-18T03:32:22;147084.59;;;16.66;nan
6853;BME280;3465;42.144;24.722;2023-09-18T03:34:50;147066.97;;;16.59;nan
6853;BME280;3465;42.144;24.722;2023-09-18T03:37:16;147104.75;;;16.74;nan
6853;BME280;3465;42.144;24.722;2023-09-18T03:39:41;147085.81;;;16.67;nan
6853;BME280;3465;42.144;24.722;2023-09-18T03:42:06;147064.47;;;16.58;nan
6853;BME280;3465;42.144;24.722;2023-09-18T03:44:32;147072.00;;;16.61;nan
6853;BME280;3465;42.144;24.722;2023-09-18T03:46:57;147090.88;;;16.69;nan
6853;BME280;3465;42.144;24.722;2023-09-18T03:49:22;147084.59;;;16.66;nan
6853;BME280;3465;42.144;24.722;2023-09-18T03:51:48;147113.56;;;16.78;nan
6853;BME280;3465;42.144;24.722;2023-09-18T03:54:13;147103.47;;;16.74;nan
6853;BME280;3465;42.144;24.722;2023-09-18T03:56:39;147113.56;;;16.78;nan
6853;BME280;3465;42.144;24.722;2023-09-18T03:59:05;147095.91;;;16.71;nan
6853;BME280;3465;42.144;24.722;2023-09-18T04:01:31;147121.09;;;16.81;nan
6853;BME280;3465;42.144;24.722;2023-09-18T04:03:56;147119.84;;;16.80;nan
6853;BME280;3465;42.144;24.722;2023-09-18T04:06:23;147093.41;;;16.70;nan
6853;BME280;3465;42.144;24.722;2023-09-18T04:08:51;147124.88;;;16.82;nan
6853;BME280;3465;42.144;24.722;2023-09-18T04:11:17;147121.09;;;16.81;nan
6853;BME280;3465;42.144;24.722;2023-09-18T04:13:44;147113.56;;;16.78;nan
6853;BME280;3465;42.144;24.722;2023-09-18T04:16:09;147113.56;;;16.78;nan
6853;BME280;3465;42.144;24.722;2023-09-18T04:18:39;147111.00;;;16.77;nan
6853;BME280;3465;42.144;24.722;2023-09-18T04:21:04;147126.13;;;16.83;nan
6853;BME280;3465;42.144;24.722;2023-09-18T04:23:30;147124.88;;;16.82;nan
6853;BME280;3465;42.144;24.722;2023-09-18T04:25:56;147105.97;;;16.75;nan
6853;BME280;3465;42.144;24.722;2023-09-18T04:28:23;147015.31;;;16.39;nan
6853;BME280;3465;42.144;24.722;2023-09-18T04:30:49;147063.19;;;16.58;nan
6853;BME280;3465;42.144;24.722;2023-09-18T04:33:14;147055.63;;;16.55;nan
6853;BME280;3465;42.144;24.722;2023-09-18T04:35:40;147019.09;;;16.40;nan
6853;BME280;3465;42.144;24.722;2023-09-18T04:38:07;147069.47;;;16.60;nan
6853;BME280;3465;42.144;24.722;2023-09-18T04:40:34;147063.19;;;16.58;nan
6853;BME280;3465;42.144;24.722;2023-09-18T04:43:00;147068.22;;;16.60;nan
6853;BME280;3465;42.144;24.722;2023-09-18T04:45:25;147059.41;;;16.56;nan
6853;BME280;3465;42.144;24.722;2023-09-18T04:47:51;147083.31;;;16.66;nan
6853;BME280;3465;42.144;24.722;2023-09-18T04:50:17;147084.59;;;16.66;nan
6853;BME280;3465;42.144;24.722;2023-09-18T04:52:42;147102.19;;;16.73;nan
6853;BME280;3465;42.144;24.722;2023-09-18T04:55:09;147090.88;;;16.69;nan
6853;BME280;3465;42.144;24.722;2023-09-18T04:57:35;147136.22;;;16.87;nan
6853;BME280;3465;42.144;24.722;2023-09-18T05:00:01;147145.03;;;16.90;nan
6853;BME280;3465;42.144;24.722;2023-09-18T05:02:26;147147.53;;;16.91;nan
6853;BME280;3465;42.144;24.722;2023-09-18T05:04:51;147141.25;;;16.89;nan
6853;BME280;3465;42.144;24.722;2023-09-18T05:07:17;147136.22;;;16.87;nan
6853;BME280;3465;42.144;24.722;2023-09-18T05:09:42;147133.72;;;16.86;nan
6853;BME280;3465;42.144;24.722;2023-09-18T05:12:09;147136.22;;;16.87;nan
6853;BME280;3465;42.144;24.722;2023-09-18T05:14:39;147134.94;;;16.86;nan
6853;BME280;3465;42.144;24.722;2023-09-18T05:17:06;147166.41;;;16.99;nan
6853;BME280;3465;42.144;24.722;2023-09-18T05:19:31;147191.59;;;17.09;nan
6853;BME280;3465;42.144;24.722;2023-09-18T05:21:56;147223.06;;;17.22;nan
6853;BME280;3465;42.144;24.722;2023-09-18T05:24:22;147258.38;;;17.36;nan
6853;BME280;3465;42.144;24.722;2023-09-18T05:26:52;147287.34;;;17.47;nan
6853;BME280;3465;42.144;24.722;2023-09-18T05:29:18;147318.88;;;17.60;nan
6853;BME280;3465;42.144;24.722;2023-09-18T05:31:43;147345.31;;;17.70;nan
6853;BME280;3465;42.144;24.722;2023-09-18T05:34:09;147378.09;;;17.83;nan
6853;BME280;3465;42.144;24.722;2023-09-18T05:36:34;147394.47;;;17.90;nan
6853;BME280;3465;42.144;24.722;2023-09-18T05:39:00;147395.75;;;17.90;nan
6853;BME280;3465;42.144;24.722;2023-09-18T05:41:26;147427.25;;;18.03;nan
6853;BME280;3465;42.144;24.722;2023-09-18T05:43:54;147475.13;;;18.22;nan
6853;BME280;3465;42.144;24.722;2023-09-18T05:46:19;147548.28;;;18.51;nan
6853;BME280;3465;42.144;24.722;2023-09-18T05:48:45;147640.31;;;18.88;nan
6853;BME280;3465;42.144;24.722;2023-09-18T05:51:10;147723.56;;;19.21;nan
6853;BME280;3465;42.144;24.722;2023-09-18T05:53:35;147801.84;;;19.52;nan
6853;BME280;3465;42.144;24.722;2023-09-18T05:56:03;147815.69;;;19.57;nan
6853;BME280;3465;42.144;24.722;2023-09-18T05:58:30;147859.91;;;19.75;nan
6853;BME280;3465;42.144;24.722;2023-09-18T06:00:58;148024.03;;;20.40;nan
6853;BME280;3465;42.144;24.722;2023-09-18T06:03:28;148532.06;;;22.42;nan
6853;BME280;3465;42.144;24.722;2023-09-18T06:05:55;149038.44;;;24.43;nan
6853;BME280;3465;42.144;24.722;2023-09-18T06:08:21;149440.31;;;26.02;nan
6853;BME280;3465;42.144;24.722;2023-09-18T06:10:47;149730.88;;;27.17;nan
6853;BME280;3465;42.144;24.722;2023-09-18T06:13:13;149840.06;;;27.60;nan
6853;BME280;3465;42.144;24.722;2023-09-18T06:15:38;149842.59;;;27.61;nan
6853;BME280;3465;42.144;24.722;2023-09-18T06:18:04;150029.28;;;28.35;nan
6853;BME280;3465;42.144;24.722;2023-09-18T06:20:31;150230.13;;;29.14;nan
6853;BME280;3465;42.144;24.722;2023-09-18T06:22:56;150359.81;;;29.65;nan
6853;BME280;3465;42.144;24.722;2023-09-18T06:25:22;149893.41;;;27.81;nan
6853;BME280;3465;42.144;24.722;2023-09-18T06:27:47;149492.28;;;26.22;nan
6853;BME280;3465;42.144;24.722;2023-09-18T06:30:13;149274.19;;;25.36;nan
6853;BME280;3465;42.144;24.722;2023-09-18T06:32:38;149421.25;;;25.94;nan
6853;BME280;3465;42.144;24.722;2023-09-18T06:35:04;149510.06;;;26.29;nan
6853;BME280;3465;42.144;24.722;2023-09-18T06:37:29;149664.88;;;26.91;nan
6853;BME280;3465;42.144;24.722;2023-09-18T06:39:55;149724.50;;;27.14;nan
6853;BME280;3465;42.144;24.722;2023-09-18T06:42:22;149540.53;;;26.41;nan
6853;BME280;3465;42.144;24.722;2023-09-18T06:44:47;149100.56;;;24.67;nan
6853;BME280;3465;42.144;24.722;2023-09-18T06:47:12;148849.75;;;23.68;nan
6853;BME280;3465;42.144;24.722;2023-09-18T06:49:40;148781.41;;;23.41;nan
6853;BME280;3465;42.144;24.722;2023-09-18T06:52:07;148580.16;;;22.61;nan
6853;BME280;3465;42.144;24.722;2023-09-18T06:54:32;148587.81;;;22.64;nan
6853;BME280;3465;42.144;24.722;2023-09-18T06:56:58;148676.34;;;22.99;nan
6853;BME280;3465;42.144;24.722;2023-09-18T06:59:23;148801.66;;;23.49;nan
6853;BME280;3465;42.144;24.722;2023-09-18T07:01:48;149157.56;;;24.90;nan
6853;BME280;3465;42.144;24.722;2023-09-18T07:04:14;149275.47;;;25.37;nan
6853;BME280;3465;42.144;24.722;2023-09-18T07:06:39;149388.28;;;25.81;nan
6853;BME280;3465;42.144;24.722;2023-09-18T07:09:05;149854.00;;;27.65;nan
6853;BME280;3465;42.144;24.722;2023-09-18T07:11:35;150137.34;;;28.77;nan
6853;BME280;3465;42.144;24.722;2023-09-18T07:14:00;150124.63;;;28.72;nan
6853;BME280;3465;42.144;24.722;2023-09-18T07:16:27;150089.06;;;28.58;nan
6853;BME280;3465;42.144;24.722;2023-09-18T07:18:53;149805.78;;;27.46;nan
6853;BME280;3465;42.144;24.722;2023-09-18T07:21:18;149620.47;;;26.73;nan
6853;BME280;3465;42.144;24.722;2023-09-18T07:23:45;149553.16;;;26.46;nan
6853;BME280;3465;42.144;24.722;2023-09-18T07:26:12;149743.56;;;27.22;nan
6853;BME280;3465;42.144;24.722;2023-09-18T07:28:38;149845.16;;;27.62;nan
6853;BME280;3465;42.144;24.722;2023-09-18T07:31:07;150019.16;;;28.31;nan
6853;BME280;3465;42.144;24.722;2023-09-18T07:33:34;150498.41;;;30.20;nan
6853;BME280;3465;42.144;24.722;2023-09-18T07:35:59;150867.53;;;31.65;nan
6853;BME280;3465;42.144;24.722;2023-09-18T07:38:25;150615.47;;;30.66;nan
6853;BME280;3465;42.144;24.722;2023-09-18T07:40:50;150450.09;;;30.01;nan
6853;BME280;3465;42.144;24.722;2023-09-18T07:43:16;150059.81;;;28.47;nan
6853;BME280;3465;42.144;24.722;2023-09-18T07:45:41;149591.25;;;26.61;nan
6853;BME280;3465;42.144;24.722;2023-09-18T07:48:07;149352.78;;;25.67;nan
6853;BME280;3465;42.144;24.722;2023-09-18T07:50:36;149437.78;;;26.01;nan
6853;BME280;3465;42.144;24.722;2023-09-18T07:53:02;149918.81;;;27.91;nan
6853;BME280;3465;42.144;24.722;2023-09-18T07:55:28;150280.94;;;29.34;nan
6853;BME280;3465;42.144;24.722;2023-09-18T07:57:55;150709.69;;;31.03;nan
6853;BME280;3465;42.144;24.722;2023-09-18T08:00:20;150994.91;;;32.16;nan
6853;BME280;3465;42.144;24.722;2023-09-18T08:02:48;150508.63;;;30.24;nan
6853;BME280;3465;42.144;24.722;2023-09-18T08:05:15;149860.38;;;27.68;nan
6853;BME280;3465;42.144;24.722;2023-09-18T08:07:41;149611.59;;;26.69;nan
6853;BME280;3465;42.144;24.722;2023-09-18T08:10:07;149380.69;;;25.78;nan
6853;BME280;3465;42.144;24.722;2023-09-18T08:12:33;149324.91;;;25.56;nan
6853;BME280;3465;42.144;24.722;2023-09-18T08:14:59;149281.78;;;25.39;nan
6853;BME280;3465;42.144;24.722;2023-09-18T08:17:25;149335.03;;;25.60;nan
6853;BME280;3465;42.144;24.722;2023-09-18T08:19:52;149517.66;;;26.32;nan
6853;BME280;3465;42.144;24.722;2023-09-18T08:22:18;149876.88;;;27.74;nan
6853;BME280;3465;42.144;24.722;2023-09-18T08:24:45;150292.44;;;29.38;nan
6853;BME280;3465;42.144;24.722;2023-09-18T08:27:13;150273.34;;;29.31;nan
6853;BME280;3465;42.144;24.722;2023-09-18T08:29:38;149962.00;;;28.08;nan
6853;BME280;3465;42.144;24.722;2023-09-18T08:32:03;149799.44;;;27.44;nan
6853;BME280;3465;42.144;24.722;2023-09-18T08:34:29;149544.31;;;26.43;nan
6853;BME280;3465;42.144;24.722;2023-09-18T08:36:54;149655.97;;;26.87;nan
6853;BME280;3465;42.144;24.722;2023-09-18T08:39:20;149949.28;;;28.03;nan
6853;BME280;3465;42.144;24.722;2023-09-18T08:41:48;150376.34;;;29.72;nan
6853;BME280;3465;42.144;24.722;2023-09-18T08:44:16;150302.56;;;29.42;nan
6853;BME280;3465;42.144;24.722;2023-09-18T08:46:43;149855.28;;;27.66;nan
6853;BME280;3465;42.144;24.722;2023-09-18T08:49:10;149558.25;;;26.48;nan
6853;BME280;3465;42.144;24.722;2023-09-18T08:51:37;149860.38;;;27.68;nan
6853;BME280;3465;42.144;24.722;2023-09-18T08:54:04;150368.75;;;29.69;nan
6853;BME280;3465;42.144;24.722;2023-09-18T08:56:31;150765.66;;;31.25;nan
6853;BME280;3465;42.144;24.722;2023-09-18T08:58:57;150779.72;;;31.31;nan
6853;BME280;3465;42.144;24.722;2023-09-18T09:01:24;150634.53;;;30.73;nan
6853;BME280;3465;42.144;24.722;2023-09-18T09:03:50;150717.31;;;31.06;nan
6853;BME280;3465;42.144;24.722;2023-09-18T09:06:16;150638.41;;;30.75;nan
6853;BME280;3465;42.144;24.722;2023-09-18T09:08:42;150598.94;;;30.59;nan
6853;BME280;3465;42.144;24.722;2023-09-18T09:11:07;150336.91;;;29.56;nan
6853;BME280;3465;42.144;24.722;2023-09-18T09:13:33;150338.16;;;29.57;nan
6853;BME280;3465;42.144;24.722;2023-09-18T09:15:58;150280.94;;;29.34;nan
6853;BME280;3465;42.144;24.722;2023-09-18T09:18:27;150403.03;;;29.82;nan
6853;BME280;3465;42.144;24.722;2023-09-18T09:21:01;150358.53;;;29.65;nan
6853;BME280;3465;42.144;24.722;2023-09-18T09:23:44;149887.03;;;27.78;nan
6853;BME280;3465;42.144;24.722;2023-09-18T09:26:15;149986.13;;;28.18;nan
6853;BME280;3465;42.144;24.722;2023-09-18T09:28:42;150396.69;;;29.80;nan
6853;BME280;3465;42.144;24.722;2023-09-18T09:31:09;150730.03;;;31.11;nan
6853;BME280;3465;42.144;24.722;2023-09-18T09:33:36;150778.41;;;31.30;nan
6853;BME280;3465;42.144;24.722;2023-09-18T09:36:05;150592.59;;;30.57;nan
6853;BME280;3465;42.144;24.722;2023-09-18T09:38:32;150648.63;;;30.79;nan
6853;BME280;3465;42.144;24.722;2023-09-18T09:41:02;150747.88;;;31.18;nan
6853;BME280;3465;42.144;24.722;2023-09-18T09:43:32;151014.00;;;32.23;nan
6853;BME280;3465;42.144;24.722;2023-09-18T09:46:00;151414.22;;;33.81;nan
6853;BME280;3465;42.144;24.722;2023-09-18T09:48:26;151512.47;;;34.19;nan
6853;BME280;3465;42.144;24.722;2023-09-18T09:50:52;150875.16;;;31.68;nan
6853;BME280;3465;42.144;24.722;2023-09-18T09:53:45;150169.09;;;28.90;nan
6853;BME280;3465;42.144;24.722;2023-09-18T09:56:12;149918.81;;;27.91;nan
6853;BME280;3465;42.144;24.722;2023-09-18T09:58:38;150081.41;;;28.55;nan
6853;BME280;3465;42.144;24.722;2023-09-18T10:01:08;150100.50;;;28.63;nan
6853;BME280;3465;42.144;24.722;2023-09-18T10:03:38;150006.44;;;28.26;nan
6853;BME280;3465;42.144;24.722;2023-09-18T10:06:04;150043.28;;;28.40;nan
6853;BME280;3465;42.144;24.722;2023-09-18T10:08:31;149944.22;;;28.01;nan
6853;BME280;3465;42.144;24.722;2023-09-18T10:11:07;150178.00;;;28.93;nan
6853;BME280;3465;42.144;24.722;2023-09-18T10:16:36;150401.78;;;29.82;nan
6853;BME280;3465;42.144;24.722;2023-09-18T10:22:24;150014.06;;;28.29;nan
6853;BME280;3465;42.144;24.722;2023-09-18T10:24:56;149824.84;;;27.54;nan
6853;BME280;3465;42.144;24.722;2023-09-18T10:27:25;149696.59;;;27.03;nan
6853;BME280;3465;42.144;24.722;2023-09-18T10:29:52;149525.25;;;26.35;nan
6853;BME280;3465;42.144;24.722;2023-09-18T10:32:21;149587.44;;;26.60;nan
6853;BME280;3465;42.144;24.722;2023-09-18T10:34:47;149758.84;;;27.28;nan
6853;BME280;3465;42.144;24.722;2023-09-18T10:37:14;150063.66;;;28.48;nan
6853;BME280;3465;42.144;24.722;2023-09-18T10:39:41;150335.63;;;29.56;nan
6853;BME280;3465;42.144;24.722;2023-09-18T10:42:08;150747.88;;;31.18;nan
6853;BME280;3465;42.144;24.722;2023-09-18T10:44:34;150908.28;;;31.81;nan
6853;BME280;3465;42.144;24.722;2023-09-18T10:47:02;150839.53;;;31.54;nan
6853;BME280;3465;42.144;24.722;2023-09-18T10:49:30;150826.81;;;31.49;nan
6853;BME280;3465;42.144;24.722;2023-09-18T10:51:56;151001.25;;;32.18;nan
6853;BME280;3465;42.144;24.722;2023-09-18T10:54:23;151349.22;;;33.55;nan
6853;BME280;3465;42.144;24.722;2023-09-18T10:56:50;151623.47;;;34.63;nan
6853;BME280;3465;42.144;24.722;2023-09-18T10:59:17;151647.69;;;34.72;nan
6853;BME280;3465;42.144;24.722;2023-09-18T11:01:43;151521.41;;;34.23;nan
6853;BME280;3465;42.144;24.722;2023-09-18T11:04:09;151277.84;;;33.27;nan
6853;BME280;3465;42.144;24.722;2023-09-18T11:09:26;150997.44;;;32.17;nan
6853;BME280;3465;42.144;24.722;2023-09-18T11:14:47;150568.44;;;30.47;nan
6853;BME280;3465;42.144;24.722;2023-09-18T11:17:40;150392.88;;;29.78;nan
6853;BME280;3465;42.144;24.722;2023-09-18T11:22:47;150200.84;;;29.02;nan
6853;BME280;3465;42.144;24.722;2023-09-18T11:27:56;150399.22;;;29.81;nan
6853;BME280;3465;42.144;24.722;2023-09-18T11:30:22;150141.16;;;28.79;nan
6853;BME280;3465;42.144;24.722;2023-09-18T11:32:49;150275.91;;;29.32;nan
6853;BME280;3465;42.144;24.722;2023-09-18T11:35:15;150335.63;;;29.56;nan
6853;BME280;3465;42.144;24.722;2023-09-18T11:37:44;150208.47;;;29.05;nan
6853;BME280;3465;42.144;24.722;2023-09-18T11:40:33;150325.44;;;29.52;nan
6853;BME280;3465;42.144;24.722;2023-09-18T11:43:26;150492.03;;;30.17;nan
6853;BME280;3465;42.144;24.722;2023-09-18T11:45:56;150534.06;;;30.34;nan
6853;BME280;3465;42.144;24.722;2023-09-18T11:48:23;150499.72;;;30.20;nan
6853;BME280;3465;42.144;24.722;2023-09-18T11:50:52;150637.13;;;30.74;nan
6853;BME280;3465;42.144;24.722;2023-09-18T11:53:18;150895.53;;;31.76;nan
6853;BME280;3465;42.144;24.722;2023-09-18T11:55:44;150927.47;;;31.89;nan
6853;BME280;3465;42.144;24.722;2023-09-18T11:58:09;150928.69;;;31.89;nan
6853;BME280;3465;42.144;24.722;2023-09-18T12:00:36;151065.03;;;32.43;nan
6853;BME280;3465;42.144;24.722;2023-09-18T12:03:21;151284.19;;;33.29;nan
6853;BME280;3465;42.144;24.722;2023-09-18T12:05:58;151466.53;;;34.01;nan
6853;BME280;3465;42.144;24.722;2023-09-18T12:08:25;151443.63;;;33.92;nan
6853;BME280;3465;42.144;24.722;2023-09-18T12:10:54;151142.72;;;32.74;nan
6853;BME280;3465;42.144;24.722;2023-09-18T12:13:19;151091.75;;;32.54;nan
6853;BME280;3465;42.144;24.722;2023-09-18T12:15:46;150837.00;;;31.53;nan
6853;BME280;3465;42.144;24.722;2023-09-18T12:18:14;150452.63;;;30.02;nan
6853;BME280;3465;42.144;24.722;2023-09-18T12:20:49;150068.75;;;28.50;nan
6853;BME280;3465;42.144;24.722;2023-09-18T12:23:16;149809.56;;;27.48;nan
6853;BME280;3465;42.144;24.722;2023-09-18T12:25:44;149827.38;;;27.55;nan
6853;BME280;3465;42.144;24.722;2023-09-18T12:28:10;149936.59;;;27.98;nan
6853;BME280;3465;42.144;24.722;2023-09-18T12:30:36;150083.97;;;28.56;nan
6853;BME280;3465;42.144;24.722;2023-09-18T12:33:02;150326.72;;;29.52;nan
6853;BME280;3465;42.144;24.722;2023-09-18T12:35:29;150275.91;;;29.32;nan
6853;BME280;3465;42.144;24.722;2023-09-18T12:37:57;150287.34;;;29.36;nan
6853;BME280;3465;42.144;24.722;2023-09-18T12:40:24;150097.94;;;28.62;nan
6853;BME280;3465;42.144;24.722;2023-09-18T12:42:50;150142.38;;;28.79;nan
6853;BME280;3465;42.144;24.722;2023-09-18T12:45:16;150278.44;;;29.33;nan
6853;BME280;3465;42.144;24.722;2023-09-18T12:47:43;150389.06;;;29.77;nan
6853;BME280;3465;42.144;24.722;2023-09-18T12:50:12;150366.16;;;29.68;nan
6853;BME280;3465;42.144;24.722;2023-09-18T12:52:38;150218.72;;;29.09;nan
6853;BME280;3465;42.144;24.722;2023-09-18T12:55:03;150227.56;;;29.13;nan
6853;BME280;3465;42.144;24.722;2023-09-18T12:57:32;150006.44;;;28.26;nan
6853;BME280;3465;42.144;24.722;2023-09-18T12:59:57;149950.59;;;28.03;nan
6853;BME280;3465;42.144;24.722;2023-09-18T13:02:23;150036.91;;;28.38;nan
6853;BME280;3465;42.144;24.722;2023-09-18T13:04:53;150020.41;;;28.31;nan
6853;BME280;3465;42.144;24.722;2023-09-18T13:07:18;149918.81;;;27.91;nan
6853;BME280;3465;42.144;24.722;2023-09-18T13:10:01;149798.16;;;27.43;nan
6853;BME280;3465;42.144;24.722;2023-09-18T13:12:41;149669.97;;;26.93;nan
6853;BME280;3465;42.144;24.722;2023-09-18T13:15:07;149649.66;;;26.85;nan
6853;BME280;3465;42.144;24.722;2023-09-18T13:17:45;149626.78;;;26.76;nan
6853;BME280;3465;42.144;24.722;2023-09-18T13:20:12;149573.47;;;26.54;nan
6853;BME280;3465;42.144;24.722;2023-09-18T13:22:39;149555.72;;;26.47;nan
6853;BME280;3465;42.144;24.722;2023-09-18T13:25:06;149540.53;;;26.41;nan
6853;BME280;3465;42.144;24.722;2023-09-18T13:27:32;149479.66;;;26.17;nan
6853;BME280;3465;42.144;24.722;2023-09-18T13:29:57;149439.06;;;26.01;nan
6853;BME280;3465;42.144;24.722;2023-09-18T13:32:35;149375.59;;;25.76;nan
6853;BME280;3465;42.144;24.722;2023-09-18T13:35:02;149242.47;;;25.23;nan
6853;BME280;3465;42.144;24.722;2023-09-18T13:37:28;149260.22;;;25.30;nan
6853;BME280;3465;42.144;24.722;2023-09-18T13:39:54;149246.28;;;25.25;nan